Time;durP1;ratioP1;P1;durP2;ratioP2;P2;SDS_P1;SDS_P2;PMS_P1;PMS_P2;Temp;Humidity;BMP_temperature;BMP_pressure;BME280_temperature;BME280_humidity;BME280_pressure;Samples;Min_cycle;Max_cycle;Signal;HPM_P1;HPM_P2
2021/11/03 00:00:26;;;;;;;15.85;8.18;;;;;;;7.76;100.00;96261.09;4965198;28;20062;-63
2021/11/03 00:02:53;;;;;;;17.48;8.00;;;;;;;9.75;100.00;96598.38;4963913;28;20141;-64
2021/11/03 00:05:20;;;;;;;24.27;9.52;;;;;;;9.45;100.00;96528.47;4964021;28;20051;-64
2021/11/03 00:07:46;;;;;;;28.45;9.52;;;;;;;7.33;100.00;96198.22;4964901;28;20146;-63
2021/11/03 00:10:16;;;;;;;23.30;9.55;;;;;;;9.71;100.00;96598.34;4963663;28;20061;-65
2021/11/03 00:12:43;;;;;;;22.17;9.80;;;;;;;9.26;100.00;96559.81;4965534;28;20055;-64
2021/11/03 00:15:10;;;;;;;27.15;10.68;;;;;;;9.64;100.00;96609.28;4964992;28;20047;-63
2021/11/03 00:17:37;;;;;;;25.50;9.70;;;;;;;9.61;100.00;96615.56;4964807;28;20552;-64
2021/11/03 00:20:09;;;;;;;28.50;7.90;;;;;;;9.68;100.00;96609.34;4963476;28;20415;-63
2021/11/03 00:22:37;;;;;;;17.98;8.20;;;;;;;9.51;100.00;96591.34;4965249;28;20081;-64
2021/11/03 00:25:05;;;;;;;22.08;8.10;;;;;;;9.55;100.00;96616.28;4965168;28;20513;-63
2021/11/03 00:27:32;;;;;;;14.82;7.07;;;;;;;9.54;100.00;96626.56;4965001;28;20059;-63
2021/11/03 00:29:59;;;;;;;24.77;7.45;;;;;;;9.58;100.00;96621.84;4965322;28;20062;-63
2021/11/03 00:32:25;;;;;;;18.70;7.80;;;;;;;9.58;100.00;96627.38;4964632;28;20528;-64
2021/11/03 00:34:52;;;;;;;25.65;9.50;;;;;;;9.50;100.00;96631.22;4965308;28;20520;-63
2021/11/03 00:37:19;;;;;;;33.05;10.18;;;;;;;9.48;100.00;96636.34;4964478;28;20055;-63
2021/11/03 00:39:45;;;;;;;19.02;8.98;;;;;;;9.46;100.00;96607.47;4964988;28;20057;-64
2021/11/03 00:42:12;;;;;;;26.25;7.53;;;;;;;9.49;100.00;96629.63;4964665;28;20534;-63
2021/11/03 00:44:39;;;;;;;25.08;7.55;;;;;;;9.10;100.00;96562.72;4964874;28;20050;-65
2021/11/03 00:47:06;;;;;;;20.20;7.30;;;;;;;9.52;100.00;96623.34;4964758;28;20065;-62
2021/11/03 00:49:32;;;;;;;14.25;7.65;;;;;;;9.57;100.00;96636.06;4963115;28;20065;-63
2021/11/03 00:51:59;;;;;;;12.38;6.22;;;;;;;9.06;100.00;96599.75;4963282;28;20065;-62
2021/11/03 00:54:26;;;;;;;16.67;7.57;;;;;;;9.05;100.00;96642.38;4964420;28;20575;-63
2021/11/03 00:56:52;;;;;;;17.40;7.53;;;;;;;8.94;100.00;96630.34;4964506;28;20078;-64
2021/11/03 00:59:19;;;;;;;15.80;6.85;;;;;;;9.11;100.00;96647.22;4964657;28;20514;-63
2021/11/03 01:01:46;;;;;;;14.38;6.82;;;;;;;9.18;100.00;96643.78;4964809;28;20046;-64
2021/11/03 01:04:14;;;;;;;13.15;6.97;;;;;;;9.19;100.00;96643.41;4964315;28;20125;-62
2021/11/03 01:06:41;;;;;;;15.50;6.57;;;;;;;7.10;100.00;96322.16;4964199;28;20051;-64
2021/11/03 01:09:08;;;;;;;15.20;7.38;;;;;;;8.92;100.00;96594.00;4966564;28;20061;-63
2021/11/03 01:11:37;;;;;;;12.07;6.25;;;;;;;8.82;100.00;96597.41;4967950;28;20058;-64
2021/11/03 01:14:05;;;;;;;11.45;6.13;;;;;;;9.07;100.00;96606.91;4968126;28;20055;-64
2021/11/03 01:16:32;;;;;;;10.48;5.40;;;;;;;9.37;100.00;96654.75;4967752;28;20058;-64
2021/11/03 01:19:00;;;;;;;9.23;4.88;;;;;;;9.31;100.00;96656.19;4966575;28;20145;-64
2021/11/03 01:21:27;;;;;;;9.20;5.20;;;;;;;9.01;100.00;96613.88;4967895;28;20545;-64
2021/11/03 01:23:53;;;;;;;12.00;5.75;;;;;;;9.16;100.00;96666.25;4966922;28;20062;-64
2021/11/03 01:26:20;;;;;;;8.85;5.28;;;;;;;9.25;100.00;96652.16;4967960;28;20433;-63
2021/11/03 01:28:47;;;;;;;13.38;5.38;;;;;;;9.33;100.00;96658.59;4967805;28;20066;-64
2021/11/03 01:31:14;;;;;;;11.65;5.72;;;;;;;9.32;100.00;96660.56;4968018;28;20058;-62
2021/11/03 01:33:42;;;;;;;15.63;6.90;;;;;;;9.37;100.00;96676.84;4966381;28;20216;-63
2021/11/03 01:36:10;;;;;;;9.05;4.95;;;;;;;9.46;100.00;96658.03;4968033;28;20082;-63
2021/11/03 01:38:37;;;;;;;11.23;6.72;;;;;;;9.54;100.00;96654.19;4967606;28;20055;-64
2021/11/03 01:41:04;;;;;;;9.90;6.05;;;;;;;9.46;100.00;96669.09;4966859;28;20139;-63
2021/11/03 01:43:39;;;;;;;9.35;5.50;;;;;;;9.42;100.00;96657.16;4967515;28;20054;-63
2021/11/03 01:46:31;;;;;;;10.25;5.45;;;;;;;9.45;100.00;96669.44;4965952;28;20062;-64
2021/11/03 01:49:04;;;;;;;9.57;5.20;;;;;;;9.44;100.00;96674.19;4965665;28;20110;-64
2021/11/03 01:51:44;;;;;;;10.32;5.55;;;;;;;9.20;100.00;96633.13;4967626;28;20081;-65
2021/11/03 01:54:17;;;;;;;10.95;5.65;;;;;;;9.44;100.00;96682.47;4967512;28;20059;-64
2021/11/03 01:56:44;;;;;;;11.05;5.97;;;;;;;9.10;100.00;96628.25;4967281;28;20070;-65
2021/11/03 01:59:22;;;;;;;12.40;5.80;;;;;;;8.88;100.00;96582.13;4967656;28;20057;-64
2021/11/03 02:01:50;;;;;;;17.73;6.38;;;;;;;9.20;100.00;96644.19;4965773;28;20537;-64
2021/11/03 02:04:18;;;;;;;11.13;5.43;;;;;;;9.32;100.00;96657.81;4965615;28;20578;-65
2021/11/03 02:06:45;;;;;;;11.30;5.60;;;;;;;9.51;100.00;96668.78;4966889;28;20082;-65
2021/11/03 02:09:12;;;;;;;11.98;5.38;;;;;;;8.91;100.00;96603.47;4967236;28;20058;-65
2021/11/03 02:11:39;;;;;;;10.63;5.50;;;;;;;9.46;100.00;96674.63;4967163;28;20085;-65
2021/11/03 02:14:08;;;;;;;15.23;6.68;;;;;;;9.29;100.00;96661.31;4966902;28;20059;-64
2021/11/03 02:16:40;;;;;;;12.88;6.55;;;;;;;9.49;100.00;96698.75;4966532;28;20550;-67
2021/11/03 02:19:17;;;;;;;19.27;7.90;;;;;;;8.90;100.00;96613.72;4964965;28;20073;-65
2021/11/03 02:22:21;;;;;;;13.57;5.75;;;;;;;9.28;100.00;96679.06;4965980;28;20059;-64
2021/11/03 02:25:07;;;;;;;9.05;5.07;;;;;;;9.20;100.00;96682.88;4967074;28;20803;-64
2021/11/03 02:27:39;;;;;;;11.40;5.25;;;;;;;9.16;100.00;96679.25;4965304;28;20540;-64
2021/11/03 02:30:08;;;;;;;11.73;5.25;;;;;;;9.15;100.00;96683.22;4966981;28;20054;-64
2021/11/03 02:32:35;;;;;;;18.95;5.53;;;;;;;9.06;100.00;96699.22;4966818;28;20532;-64
2021/11/03 02:35:03;;;;;;;9.73;4.70;;;;;;;8.86;100.00;96701.25;4966895;28;20248;-64
2021/11/03 02:37:29;;;;;;;12.48;5.45;;;;;;;8.67;100.00;96697.72;4966609;28;20051;-65
2021/11/03 02:40:18;;;;;;;10.82;4.82;;;;;;;8.81;100.00;96703.50;4966744;28;20062;-64
2021/11/03 02:42:50;;;;;;;15.73;5.82;;;;;;;8.74;100.00;96714.44;4966838;28;20055;-64
2021/11/03 02:45:24;;;;;;;12.40;5.05;;;;;;;6.29;100.00;96352.75;4965994;28;20454;-63
2021/11/03 02:47:52;;;;;;;21.40;5.82;;;;;;;8.57;100.00;96701.06;4965358;28;20078;-65
2021/11/03 02:50:19;;;;;;;12.38;5.78;;;;;;;8.66;100.00;96730.06;4964591;28;20046;-65
2021/11/03 02:52:46;;;;;;;13.50;5.80;;;;;;;8.56;100.00;96716.06;4966553;28;20055;-66
2021/11/03 02:55:13;;;;;;;13.10;5.55;;;;;;;8.61;100.00;96711.03;4964748;28;20103;-65
2021/11/03 02:57:39;;;;;;;12.60;4.72;;;;;;;8.52;100.00;96695.88;4965264;28;20046;-65
2021/11/03 03:00:14;;;;;;;13.05;5.28;;;;;;;8.66;100.00;96712.72;4965725;28;20062;-66
2021/11/03 03:02:41;;;;;;;10.50;5.00;;;;;;;8.60;100.00;96744.53;4966121;28;20054;-65
2021/11/03 03:05:08;;;;;;;11.45;4.85;;;;;;;8.61;100.00;96741.41;4966076;28;20050;-66
2021/11/03 03:07:35;;;;;;;18.30;4.88;;;;;;;8.67;100.00;96731.66;4966183;28;20054;-66
2021/11/03 03:10:04;;;;;;;10.05;4.47;;;;;;;8.70;100.00;96724.59;4964615;28;20055;-65
2021/11/03 03:12:32;;;;;;;14.70;5.28;;;;;;;8.27;100.00;96700.09;4966122;28;20047;-66
2021/11/03 03:14:59;;;;;;;22.02;5.43;;;;;;;8.32;100.00;96738.44;4966241;28;20055;-65
2021/11/03 03:17:28;;;;;;;19.02;4.70;;;;;;;6.56;100.00;96450.78;4966514;28;20058;-65
2021/11/03 03:19:55;;;;;;;19.98;5.63;;;;;;;8.41;100.00;96737.03;4966167;28;20050;-66
2021/11/03 03:22:22;;;;;;;13.05;5.38;;;;;;;8.40;100.00;96748.44;4965805;28;20056;-66
2021/11/03 03:24:49;;;;;;;16.55;6.43;;;;;;;8.40;100.00;96748.44;4966239;28;20050;-66
2021/11/03 03:27:20;;;;;;;9.90;4.85;;;;;;;7.83;100.00;96671.16;4965699;28;20071;-65
2021/11/03 03:29:46;;;;;;;11.55;4.45;;;;;;;8.40;100.00;96762.25;4965504;28;20055;-65
2021/11/03 03:32:13;;;;;;;9.85;4.47;;;;;;;8.32;100.00;96785.34;4964451;28;20058;-64
2021/11/03 03:34:40;;;;;;;8.95;5.13;;;;;;;8.32;100.00;96768.78;4965746;28;20066;-65
2021/11/03 03:37:08;;;;;;;11.43;5.28;;;;;;;8.23;100.00;96754.41;4964384;28;20047;-65
2021/11/03 03:39:35;;;;;;;8.45;4.30;;;;;;;8.32;100.00;96774.31;4964214;28;20253;-64
2021/11/03 03:42:15;;;;;;;21.98;5.07;;;;;;;8.30;100.00;96773.88;4964834;28;20533;-65
2021/11/03 03:44:42;;;;;;;13.65;6.30;;;;;;;8.24;100.00;96784.41;4963815;28;20055;-65
2021/11/03 03:47:09;;;;;;;10.65;5.45;;;;;;;8.22;100.00;96786.69;4964261;28;20054;-64
2021/11/03 03:49:37;;;;;;;11.65;4.70;;;;;;;8.02;100.00;96759.44;4941803;28;20054;-64
2021/11/03 03:52:05;;;;;;;6.95;3.78;;;;;;;7.65;100.00;96729.47;4963802;28;20195;-66
2021/11/03 03:54:32;;;;;;;9.00;4.35;;;;;;;7.35;100.00;96703.56;4965564;28;20514;-65
2021/11/03 03:57:00;;;;;;;8.40;4.28;;;;;;;8.03;100.00;96799.66;4965557;28;20061;-64
2021/11/03 03:59:27;;;;;;;9.07;4.75;;;;;;;8.01;100.00;96807.47;4965557;28;20055;-64
2021/11/03 04:01:53;;;;;;;10.98;5.15;;;;;;;7.88;100.00;96770.94;4964807;28;20062;-65
2021/11/03 04:04:21;;;;;;;8.55;4.32;;;;;;;7.84;100.00;96794.09;4965078;28;20529;-65
2021/11/03 04:06:47;;;;;;;17.40;8.07;;;;;;;7.17;100.00;96701.53;4964667;28;20069;-64
2021/11/03 04:09:14;;;;;;;12.70;6.57;;;;;;;7.35;100.00;96742.13;4965351;28;20513;-65
2021/11/03 04:11:41;;;;;;;9.40;4.95;;;;;;;7.57;100.00;96788.34;4964781;28;20477;-63
2021/11/03 04:14:08;;;;;;;15.38;5.53;;;;;;;7.73;100.00;96808.41;4965154;28;20565;-63
2021/11/03 04:16:35;;;;;;;15.02;6.97;;;;;;;7.65;100.00;96817.66;4963146;28;20066;-64
2021/11/03 04:19:02;;;;;;;12.75;6.72;;;;;;;7.74;100.00;96807.25;4963305;28;20057;-63
2021/11/03 04:21:30;;;;;;;8.35;4.68;;;;;;;7.71;100.00;96810.72;4964453;28;20548;-63
2021/11/03 04:24:17;;;;;;;11.50;5.65;;;;;;;7.65;100.00;96820.44;4965292;28;20062;-64
2021/11/03 04:26:47;;;;;;;9.48;4.82;;;;;;;7.63;100.00;96825.47;4963110;28;20059;-63
2021/11/03 04:29:16;;;;;;;16.08;3.72;;;;;;;7.33;100.00;96766.47;4964956;28;20078;-65
2021/11/03 04:31:43;;;;;;;23.73;5.30;;;;;;;7.64;100.00;96816.06;4963330;28;20054;-63
2021/11/03 04:34:10;;;;;;;9.27;4.78;;;;;;;7.35;100.00;96801.97;4964912;28;20054;-63
2021/11/03 04:36:37;;;;;;;13.88;4.03;;;;;;;7.54;100.00;96838.66;4964875;28;20061;-64
2021/11/03 04:39:07;;;;;;;9.27;5.28;;;;;;;6.83;100.00;96713.28;4964757;28;20057;-65
2021/11/03 04:41:35;;;;;;;9.75;5.00;;;;;;;7.55;100.00;96834.75;4963177;28;20058;-65
2021/11/03 04:44:02;;;;;;;14.35;5.25;;;;;;;7.41;100.00;96812.34;4968412;28;20051;-65
2021/11/03 04:46:29;;;;;;;17.88;6.10;;;;;;;7.05;100.00;96771.28;4967930;28;20069;-64
2021/11/03 04:48:56;;;;;;;6.07;3.85;;;;;;;7.37;100.00;96836.25;4968192;28;20117;-65
2021/11/03 04:51:23;;;;;;;13.20;5.03;;;;;;;7.39;100.00;96831.19;4967090;28;20059;-64
2021/11/03 04:53:50;;;;;;;10.30;5.10;;;;;;;7.52;100.00;96829.94;4968932;28;20057;-66
2021/11/03 04:56:22;;;;;;;18.42;5.35;;;;;;;7.34;100.00;96822.38;4968642;28;20054;-66
2021/11/03 04:58:51;;;;;;;14.05;4.88;;;;;;;7.47;100.00;96838.50;4969102;28;20058;-66
2021/11/03 05:01:22;;;;;;;23.35;7.25;;;;;;;7.47;100.00;96844.00;4966808;28;20157;-67
2021/11/03 05:03:51;;;;;;;48.40;10.82;;;;;;;7.45;100.00;96846.31;4968465;28;20054;-67
2021/11/03 05:06:20;;;;;;;86.68;27.40;;;;;;;7.48;100.00;96855.81;4967720;28;20063;-67
2021/11/03 05:08:48;;;;;;;155.15;34.30;;;;;;;7.50;100.00;96865.34;4968301;28;20051;-66
2021/11/03 05:11:16;;;;;;;44.17;12.73;;;;;;;7.22;100.00;96831.50;4967782;28;20051;-66
2021/11/03 05:13:43;;;;;;;34.60;14.90;;;;;;;7.09;100.00;96826.44;4968443;28;20082;-67
2021/11/03 05:16:14;;;;;;;58.58;20.63;;;;;;;7.36;100.00;96867.72;4968187;28;20054;-68
2021/11/03 05:18:40;;;;;;;34.17;13.02;;;;;;;7.08;100.00;96831.16;4966876;28;20499;-66
2021/11/03 05:21:07;;;;;;;38.03;8.82;;;;;;;6.92;100.00;96800.06;4967995;28;20061;-67
2021/11/03 05:23:35;;;;;;;32.95;9.35;;;;;;;7.27;100.00;96861.56;4966201;28;20438;-69
2021/11/03 05:26:02;;;;;;;23.38;9.27;;;;;;;7.36;100.00;96876.00;4968035;28;20054;-68
2021/11/03 05:28:28;;;;;;;27.70;8.68;;;;;;;7.28;100.00;96879.72;4966503;28;20061;-67
2021/11/03 05:30:55;;;;;;;19.13;9.40;;;;;;;3.82;100.00;96344.50;4967554;28;20434;-66
2021/11/03 05:33:22;;;;;;;22.67;9.73;;;;;;;7.06;100.00;96866.53;4965993;28;20054;-67
2021/11/03 05:35:49;;;;;;;19.50;8.85;;;;;;;7.21;100.00;96890.53;4967432;28;20817;-67
2021/11/03 05:38:16;;;;;;;25.10;10.98;;;;;;;7.26;100.00;96893.03;4967080;28;20054;-67
2021/11/03 05:40:43;;;;;;;29.58;13.02;;;;;;;7.15;100.00;96880.91;4967371;28;20047;-64
2021/11/03 05:43:10;;;;;;;28.77;14.13;;;;;;;7.35;100.00;96907.44;4967318;28;20494;-64
2021/11/03 05:45:36;;;;;;;29.50;14.40;;;;;;;6.34;99.66;96718.22;4965850;28;20061;-65
2021/11/03 05:48:03;;;;;;;34.20;16.85;;;;;;;7.52;98.22;96917.34;4967128;28;20110;-63
2021/11/03 05:50:33;;;;;;;41.17;19.73;;;;;;;7.54;98.43;96904.81;4967130;28;20061;-65
2021/11/03 05:53:00;;;;;;;32.15;16.67;;;;;;;6.94;100.00;96891.34;4967407;28;20065;-64
2021/11/03 05:55:28;;;;;;;37.65;18.63;;;;;;;7.52;100.00;96882.28;4965072;28;20510;-65
2021/11/03 05:57:55;;;;;;;24.05;11.40;;;;;;;7.80;100.00;96912.56;4966338;28;20080;-64
2021/11/03 06:00:30;;;;;;;21.70;10.23;;;;;;;7.92;100.00;96914.44;4967420;28;20121;-65
2021/11/03 06:02:58;;;;;;;22.08;11.90;;;;;;;7.43;100.00;96828.50;4967292;28;20059;-66
2021/11/03 06:05:25;;;;;;;21.35;10.73;;;;;;;8.18;99.54;96922.94;4967434;28;20168;-65
2021/11/03 06:08:04;;;;;;;51.72;20.15;;;;;;;8.34;99.17;96932.03;4967391;28;20051;-65
2021/11/03 06:10:38;;;;;;;29.02;14.23;;;;;;;8.35;98.97;96944.66;4965752;28;20597;-65
2021/11/03 06:13:06;;;;;;;19.75;9.80;;;;;;;8.31;100.00;96990.72;4966638;28;20054;-65
2021/11/03 06:15:36;;;;;;;16.73;8.00;;;;;;;8.23;100.00;96958.56;4967101;28;20333;-65
2021/11/03 06:18:04;;;;;;;16.33;6.53;;;;;;;8.15;100.00;96967.81;4967282;28;20054;-66
2021/11/03 06:20:31;;;;;;;9.43;4.68;;;;;;;7.63;100.00;96886.13;4965426;28;20058;-65
2021/11/03 06:22:58;;;;;;;19.48;5.85;;;;;;;8.13;100.00;96970.09;4966389;28;20054;-64
2021/11/03 06:25:25;;;;;;;15.73;5.97;;;;;;;7.52;99.54;96835.44;4966616;28;20054;-64
2021/11/03 06:27:54;;;;;;;11.15;6.68;;;;;;;8.46;100.00;96976.09;4966437;28;20059;-65
2021/11/03 06:30:26;;;;;;;14.60;6.70;;;;;;;8.52;100.00;96980.19;4965231;28;20114;-64
2021/11/03 06:32:53;;;;;;;21.08;9.77;;;;;;;7.89;100.00;96848.97;4966478;28;20055;-64
2021/11/03 06:35:21;;;;;;;76.25;38.40;;;;;;;8.84;100.00;96996.34;4966976;28;20832;-66
2021/11/03 06:37:48;;;;;;;101.55;39.42;;;;;;;8.81;100.00;96974.97;4959920;28;20054;-62
2021/11/03 06:40:17;;;;;;;34.60;16.52;;;;;;;9.04;100.00;97013.75;4965821;28;20703;-62
2021/11/03 06:42:44;;;;;;;22.73;12.82;;;;;;;8.97;99.96;96978.47;4966187;28;20046;-62
2021/11/03 06:45:14;;;;;;;100.68;38.30;;;;;;;8.40;99.30;96847.81;4965124;28;20062;-63
2021/11/03 06:47:40;;;;;;;22.90;12.32;;;;;;;9.59;97.26;96999.53;4964449;28;20050;-63
2021/11/03 06:50:08;;;;;;;24.98;14.57;;;;;;;9.59;96.65;96971.88;4966039;28;20056;-63
2021/11/03 06:52:37;;;;;;;32.58;16.63;;;;;;;9.75;96.54;96986.41;4963569;28;20543;-65
2021/11/03 06:55:07;;;;;;;31.95;15.55;;;;;;;9.88;95.72;96979.53;4962141;28;20108;-63
2021/11/03 06:57:35;;;;;;;35.83;16.38;;;;;;;9.74;95.27;96923.94;4962185;28;20043;-68
2021/11/03 07:00:09;;;;;;;37.53;16.20;;;;;;;10.49;93.01;96983.03;4965711;28;20536;-69
2021/11/03 07:02:36;;;;;;;26.60;12.38;;;;;;;9.00;91.50;96725.56;4964182;28;20046;-65
2021/11/03 07:05:04;;;;;;;25.25;10.75;;;;;;;10.81;90.87;96993.78;4965656;28;20050;-68
2021/11/03 07:07:30;;;;;;;14.85;9.20;;;;;;;10.96;89.42;97035.19;4964812;28;20468;-64
2021/11/03 07:09:57;;;;;;;17.20;8.18;;;;;;;10.07;88.97;96854.97;4961591;28;20095;-62
2021/11/03 07:12:24;;;;;;;13.65;7.13;;;;;;;10.79;89.63;96946.25;4953646;28;20073;-69
2021/11/03 07:14:51;;;;;;;16.00;8.95;;;;;;;11.52;88.40;97005.47;4964188;28;20062;-62
2021/11/03 07:17:17;;;;;;;18.35;9.70;;;;;;;9.49;87.34;96701.50;4964808;28;20051;-70
2021/11/03 07:19:48;;;;;;;15.60;8.90;;;;;;;11.68;87.47;96994.22;4964227;28;20106;-68
2021/11/03 07:22:16;;;;;;;18.20;8.60;;;;;;;11.48;87.78;96942.81;4967513;28;20046;-63
2021/11/03 07:24:42;;;;;;;60.88;24.13;;;;;;;9.64;87.23;96614.81;4963687;28;20051;-63
2021/11/03 07:27:09;;;;;;;24.15;12.70;;;;;;;12.24;86.66;96989.25;4976456;28;20054;-67
2021/11/03 07:29:40;;;;;;;14.90;8.18;;;;;;;12.05;85.76;96951.41;4946259;28;20086;-65
2021/11/03 07:32:08;;;;;;;12.35;7.22;;;;;;;12.05;89.35;96986.69;4973861;28;20049;-64
2021/11/03 07:34:35;;;;;;;10.73;6.75;;;;;;;11.56;92.70;96952.81;4972734;28;20050;-61
2021/11/03 07:37:03;;;;;;;10.02;6.32;;;;;;;11.74;93.85;96993.50;4964585;28;20058;-60
2021/11/03 07:39:30;;;;;;;10.80;5.93;;;;;;;9.57;94.86;96636.84;4964292;28;20509;-66
2021/11/03 07:41:57;;;;;;;9.48;5.57;;;;;;;12.18;93.71;97001.91;4960164;28;20943;-64
2021/11/03 07:44:24;;;;;;;9.60;6.47;;;;;;;12.10;92.67;96955.81;4961216;28;20161;-61
2021/11/03 07:46:51;;;;;;;11.65;6.90;;;;;;;12.79;90.87;97006.78;4979032;28;20062;-67
2021/11/03 07:49:19;;;;;;;9.20;6.30;;;;;;;12.79;88.71;96971.47;4963434;28;20506;-65
2021/11/03 07:51:45;;;;;;;11.73;5.63;;;;;;;12.36;88.24;96913.97;4963594;28;20057;-67
2021/11/03 07:54:12;;;;;;;8.80;5.03;;;;;;;13.46;85.79;97000.53;4964870;28;20191;-64
2021/11/03 07:56:41;;;;;;;10.43;5.32;;;;;;;13.63;83.45;96999.81;4963494;28;20134;-62
2021/11/03 07:59:09;;;;;;;11.80;6.53;;;;;;;13.80;83.51;96986.34;4975608;28;20065;-63
2021/11/03 08:01:36;;;;;;;11.85;5.85;;;;;;;13.28;83.25;96909.78;4964588;28;20384;-67
2021/11/03 08:04:03;;;;;;;12.45;7.38;;;;;;;14.05;82.76;96970.50;4964032;28;20055;-65
2021/11/03 08:06:31;;;;;;;16.77;8.18;;;;;;;13.46;82.08;96874.50;4961613;28;20047;-62
2021/11/03 08:09:04;;;;;;;9.13;5.88;;;;;;;14.63;81.46;96999.69;4975092;28;20086;-65
2021/11/03 08:11:55;;;;;;;11.30;5.80;;;;;;;14.60;79.42;96980.16;4945205;28;20498;-64
2021/11/03 08:14:25;;;;;;;12.38;5.80;;;;;;;15.03;77.91;97018.00;4958810;28;20095;-69
2021/11/03 08:16:59;;;;;;;7.03;4.88;;;;;;;14.32;76.94;96890.97;4951530;28;20062;-64
2021/11/03 08:19:33;;;;;;;7.53;4.70;;;;;;;13.88;77.24;96815.34;4962411;28;20053;-65
2021/11/03 08:22:00;;;;;;;12.20;5.82;;;;;;;14.67;76.83;96918.81;4963006;28;20406;-70
2021/11/03 08:24:27;;;;;;;10.38;5.70;;;;;;;13.85;76.47;96766.78;4961300;28;20076;-64
2021/11/03 08:26:55;;;;;;;10.27;6.43;;;;;;;15.27;76.36;96975.28;4962460;28;20047;-61
2021/11/03 08:29:23;;;;;;;10.02;5.38;;;;;;;15.57;76.12;97011.94;4962581;28;20046;-65
2021/11/03 08:31:55;;;;;;;10.65;5.38;;;;;;;15.46;76.52;96997.22;4960826;28;20520;-68
2021/11/03 08:34:24;;;;;;;7.30;4.82;;;;;;;15.94;74.51;97034.56;4961585;28;20058;-62
2021/11/03 08:36:53;;;;;;;6.15;4.57;;;;;;;15.34;72.54;96936.22;4962786;28;20047;-64
2021/11/03 08:39:20;;;;;;;7.35;4.53;;;;;;;15.91;73.03;97038.16;4963421;28;20149;-66
2021/11/03 08:41:51;;;;;;;12.63;4.35;;;;;;;16.04;71.00;97030.94;4960306;28;20051;-63
2021/11/03 08:44:17;;;;;;;6.68;3.55;;;;;;;16.11;70.50;97030.88;4948201;28;20051;-63
2021/11/03 08:46:45;;;;;;;6.35;3.97;;;;;;;16.06;69.88;96992.19;4957577;28;20050;-68
2021/11/03 08:49:12;;;;;;;6.72;4.50;;;;;;;16.08;70.64;96966.63;4962390;28;20047;-61
2021/11/03 08:51:40;;;;;;;7.90;3.83;;;;;;;16.55;69.24;97022.66;4957698;28;20047;-67
2021/11/03 08:54:07;;;;;;;6.95;4.90;;;;;;;16.58;68.43;97033.03;4957043;28;20142;-65
2021/11/03 08:56:37;;;;;;;6.43;4.03;;;;;;;16.30;68.82;96957.69;4963766;28;20411;-64
2021/11/03 08:59:07;;;;;;;7.68;4.30;;;;;;;16.69;70.06;97009.78;4958211;28;20158;-62
2021/11/03 09:01:35;;;;;;;5.85;4.43;;;;;;;16.25;66.91;96962.91;4961606;28;20047;-63
2021/11/03 09:04:03;;;;;;;7.97;4.13;;;;;;;16.74;67.01;97046.50;4965492;28;20336;-68
2021/11/03 09:06:29;;;;;;;6.03;4.05;;;;;;;16.26;68.10;96981.28;4978861;28;20161;-70
2021/11/03 09:08:56;;;;;;;6.00;4.05;;;;;;;15.64;66.74;96849.97;4969846;28;20047;-69
2021/11/03 09:11:23;;;;;;;6.13;4.38;;;;;;;16.67;67.36;96995.41;4959754;28;20058;-62
2021/11/03 09:13:51;;;;;;;5.70;3.88;;;;;;;17.05;67.08;97033.47;4963907;28;20051;-67
2021/11/03 09:16:18;;;;;;;6.88;4.93;;;;;;;16.20;67.22;96897.06;4963683;28;20061;-65
2021/11/03 09:18:46;;;;;;;5.40;3.90;;;;;;;17.41;67.98;97032.75;4963043;28;20046;-63
2021/11/03 09:21:14;;;;;;;4.75;4.30;;;;;;;17.53;66.95;97020.28;4963365;28;20138;-64
2021/11/03 09:23:43;;;;;;;7.63;4.57;;;;;;;17.57;67.04;97015.41;4963996;28;20051;-71
2021/11/03 09:26:11;;;;;;;9.02;4.43;;;;;;;17.13;67.90;97001.44;4963470;28;20069;-62
2021/11/03 09:28:40;;;;;;;7.28;4.78;;;;;;;16.64;70.06;96953.06;4964022;28;20073;-63
2021/11/03 09:31:08;;;;;;;6.10;4.00;;;;;;;17.49;69.09;97003.50;4966580;28;20542;-64
2021/11/03 09:33:36;;;;;;;5.32;4.03;;;;;;;16.98;67.11;97005.53;4967309;28;20086;-65
2021/11/03 09:36:06;;;;;;;5.65;3.35;;;;;;;17.31;68.08;97000.03;4965581;28;20469;-64
2021/11/03 09:38:35;;;;;;;11.40;4.13;;;;;;;17.56;67.38;96980.22;4967247;28;20061;-64
2021/11/03 09:41:32;;;;;;;7.93;3.88;;;;;;;17.25;65.08;96920.50;4966442;28;20051;-60
2021/11/03 09:44:20;;;;;;;4.38;3.63;;;;;;;17.68;61.77;96982.47;4965439;28;20062;-62
2021/11/03 09:46:51;;;;;;;5.97;3.83;;;;;;;17.65;61.14;96955.28;4966240;28;20461;-61
2021/11/03 09:49:37;;;;;;;4.60;3.55;;;;;;;17.44;62.35;96986.31;4965675;28;20047;-62
2021/11/03 09:52:16;;;;;;;5.78;4.13;;;;;;;17.19;64.28;96935.38;4966163;28;20058;-63
2021/11/03 09:54:48;;;;;;;4.82;3.63;;;;;;;17.66;64.30;96979.28;4967370;28;20055;-64
2021/11/03 09:57:24;;;;;;;4.70;3.70;;;;;;;18.13;61.85;96976.28;4967146;28;20077;-65
2021/11/03 10:00:12;;;;;;;11.32;5.10;;;;;;;18.34;59.01;96986.41;4965465;28;20059;-67
2021/11/03 10:03:09;;;;;;;9.05;5.18;;;;;;;18.61;58.60;96984.44;4966461;28;20055;-64
2021/11/03 10:05:41;;;;;;;9.88;4.43;;;;;;;18.90;58.70;96979.97;4966940;28;20050;-64
2021/11/03 10:08:17;;;;;;;3.30;2.90;;;;;;;18.42;55.66;96979.50;4967270;28;20094;-64
2021/11/03 10:10:55;;;;;;;3.80;3.33;;;;;;;18.20;58.71;96981.00;4965058;28;20054;-64
2021/11/03 10:13:28;;;;;;;36.58;27.55;;;;;;;18.11;59.34;96907.84;4967049;28;20054;-63
2021/11/03 10:16:15;;;;;;;6.65;5.47;;;;;;;18.96;56.86;96974.63;4966385;28;20799;-66
2021/11/03 10:18:59;;;;;;;4.97;3.40;;;;;;;19.17;57.68;96972.25;4958631;28;20550;-64
2021/11/03 10:21:32;;;;;;;4.88;3.70;;;;;;;19.53;55.27;96970.41;4946919;28;20061;-64
2021/11/03 10:24:25;;;;;;;5.40;4.40;;;;;;;19.73;54.75;96975.28;4947459;28;20816;-62
2021/11/03 10:27:11;;;;;;;11.77;7.22;;;;;;;19.31;53.69;96976.88;4944796;28;20147;-63
2021/11/03 10:29:43;;;;;;;18.48;8.45;;;;;;;19.36;52.11;96974.34;4947546;28;20047;-64
2021/11/03 10:32:18;;;;;;;8.05;4.13;;;;;;;19.28;52.49;96905.47;4958640;28;20544;-62
2021/11/03 10:35:01;;;;;;;5.60;3.70;;;;;;;19.99;51.95;96960.25;4965241;28;20082;-63
2021/11/03 10:37:42;;;;;;;3.78;3.47;;;;;;;19.50;50.80;96962.84;4966480;28;20068;-64
2021/11/03 10:40:10;;;;;;;3.13;2.83;;;;;;;18.80;51.60;96963.28;4965838;28;20054;-64
2021/11/03 10:42:40;;;;;;;3.08;2.83;;;;;;;19.03;51.28;96954.88;4965611;28;20197;-62
2021/11/03 10:45:22;;;;;;;4.45;3.65;;;;;;;19.64;52.01;96944.09;4965296;28;20054;-61
2021/11/03 10:47:53;;;;;;;4.05;3.63;;;;;;;20.07;50.17;96944.81;4964041;28;20113;-62
2021/11/03 10:50:26;;;;;;;3.85;3.45;;;;;;;20.05;50.57;96941.63;4964296;28;20538;-61
2021/11/03 10:53:13;;;;;;;4.10;3.70;;;;;;;19.32;52.03;96897.78;4965699;28;20434;-61
2021/11/03 10:55:57;;;;;;;9.07;3.92;;;;;;;19.05;51.94;96849.31;4966214;28;20061;-65
2021/11/03 10:58:30;;;;;;;10.68;5.57;;;;;;;19.53;52.67;96939.50;4966430;28;20067;-64
2021/11/03 11:01:07;;;;;;;3.55;3.17;;;;;;;19.63;51.30;96889.13;4965574;28;20059;-63
2021/11/03 11:03:48;;;;;;;4.47;4.07;;;;;;;20.33;50.78;96918.53;4965714;28;20055;-63
2021/11/03 11:06:29;;;;;;;3.83;3.45;;;;;;;19.89;50.82;96919.09;4965287;28;20067;-62
2021/11/03 11:09:22;;;;;;;3.83;3.38;;;;;;;19.63;51.00;96881.50;4966109;28;20517;-62
2021/11/03 11:11:53;;;;;;;6.17;4.33;;;;;;;20.14;50.49;96913.75;4965150;28;20056;-62
2021/11/03 11:14:23;;;;;;;4.50;3.28;;;;;;;19.47;51.12;96920.78;4965646;28;20051;-61
2021/11/03 11:17:02;;;;;;;4.78;3.80;;;;;;;19.68;51.59;96917.50;4965180;28;20145;-62
2021/11/03 11:20:00;;;;;;;5.45;4.50;;;;;;;20.12;50.47;96902.13;4965769;28;20065;-62
2021/11/03 11:23:08;;;;;;;7.10;4.55;;;;;;;20.18;51.02;96911.66;4963175;28;20379;-63
2021/11/03 11:25:40;;;;;;;6.00;5.00;;;;;;;19.55;52.24;96902.56;4954386;28;20068;-63
2021/11/03 11:28:50;;;;;;;4.95;4.25;;;;;;;19.51;53.14;96913.84;4965184;28;20058;-66
2021/11/03 11:32:04;;;;;;;5.25;4.75;;;;;;;19.78;53.66;96905.25;4942543;29;20538;-65
2021/11/03 11:35:09;;;;;;;8.73;5.50;;;;;;;19.58;53.55;96906.50;4923123;29;20061;-62
2021/11/03 11:37:41;;;;;;;7.20;5.05;;;;;;;19.83;53.88;96906.78;4961279;28;20055;-62
2021/11/03 11:40:31;;;;;;;7.07;4.87;;;;;;;20.18;53.83;96900.41;4964191;28;20062;-65
2021/11/03 11:43:12;;;;;;;5.20;4.10;;;;;;;19.48;51.37;96759.38;4963338;28;20064;-65